Time;durP1;ratioP1;P1;durP2;ratioP2;P2;SDS_P1;SDS_P2;PMS_P1;PMS_P2;Temp;Humidity;BMP_temperature;BMP_pressure;BME280_temperature;BME280_humidity;BME280_pressure;Samples;Min_cycle;Max_cycle;Signal;HPM_P1;HPM_P2
2022/06/28 00:00:16;;;;;;;5.30;4.40;;;21.60;81.70;;;;;;4994104;28;20507;-78
2022/06/28 00:02:45;;;;;;;6.20;4.30;;;21.70;81.40;;;;;;5001894;28;20463;-78
2022/06/28 00:05:15;;;;;;;6.60;3.53;;;21.80;81.00;;;;;;5013502;28;20445;-79
2022/06/28 00:07:44;;;;;;;3.33;2.90;;;21.80;80.90;;;;;;5012979;28;20538;-82
2022/06/28 00:10:14;;;;;;;5.50;3.17;;;21.80;80.90;;;;;;5012937;28;20478;-80
2022/06/28 00:12:43;;;;;;;3.87;2.60;;;21.90;80.60;;;;;;4998357;28;20491;-78
2022/06/28 00:18:00;;;;;;;4.07;3.17;;;21.90;80.60;;;;;;4989163;28;20968;-81
2022/06/28 00:20:30;;;;;;;3.30;2.90;;;21.90;80.50;;;;;;4993038;28;20981;-78
2022/06/28 00:22:58;;;;;;;5.50;3.90;;;21.90;80.30;;;;;;4992027;28;20875;-79
2022/06/28 00:25:26;;;;;;;4.77;3.80;;;22.00;80.10;;;;;;4987989;28;20466;-78
2022/06/28 00:27:55;;;;;;;5.10;4.00;;;22.00;79.90;;;;;;4993838;28;20520;-80
2022/06/28 00:30:23;;;;;;;8.33;4.30;;;21.90;79.80;;;;;;4993717;28;20951;-79
2022/06/28 00:32:51;;;;;;;5.30;4.80;;;21.70;80.30;;;;;;4991085;28;20462;-78
2022/06/28 00:35:20;;;;;;;5.20;3.70;;;21.60;80.70;;;;;;4988228;28;20464;-78
2022/06/28 00:37:50;;;;;;;5.20;4.20;;;21.40;81.00;;;;;;5004625;28;20461;-78
2022/06/28 00:40:18;;;;;;;4.63;3.80;;;21.20;81.30;;;;;;4973772;28;20504;-79
2022/06/28 00:42:46;;;;;;;5.37;4.10;;;20.90;82.40;;;;;;4992099;28;20546;-81
2022/06/28 00:45:15;;;;;;;12.93;4.77;;;20.70;83.00;;;;;;4990564;28;20521;-79
2022/06/28 00:47:44;;;;;;;6.40;4.33;;;20.30;84.30;;;;;;4993334;28;20446;-82
2022/06/28 00:50:12;;;;;;;5.40;4.60;;;20.20;84.80;;;;;;4989558;28;21706;-76
2022/06/28 00:53:00;;;;;;;5.00;4.50;;;20.10;85.40;;;;;;5023377;28;20514;-78
2022/06/28 00:55:28;;;;;;;6.03;4.50;;;20.30;84.70;;;;;;4993418;28;20497;-78
2022/06/28 00:57:57;;;;;;;13.80;12.60;;;20.60;83.90;;;;;;5021758;28;20462;-77
2022/06/28 01:00:25;;;;;;;23.50;21.20;;;20.70;83.70;;;;;;4988744;28;20450;-76
2022/06/28 01:02:53;;;;;;;29.67;26.87;;;20.90;83.10;;;;;;4989730;28;20470;-79
2022/06/28 01:05:22;;;;;;;22.93;20.73;;;20.90;83.00;;;;;;4993065;28;20469;-79
2022/06/28 01:07:50;;;;;;;22.43;20.40;;;21.00;83.00;;;;;;4989428;28;20825;-77
2022/06/28 01:10:20;;;;;;;22.30;20.20;;;21.20;82.60;;;;;;5005354;28;20464;-76
2022/06/28 01:12:48;;;;;;;19.50;17.73;;;21.30;82.20;;;;;;4991149;28;20473;-76
2022/06/28 01:15:16;;;;;;;10.43;9.43;;;21.40;82.00;;;;;;5008622;28;20452;-77
2022/06/28 01:17:53;;;;;;;7.63;6.83;;;21.30;82.30;;;;;;4987622;28;20502;-78
2022/06/28 01:20:53;;;;;;;6.87;6.13;;;21.30;82.70;;;;;;4987335;28;21056;-76
2022/06/28 01:23:42;;;;;;;6.60;5.17;;;21.40;82.60;;;;;;5006950;28;20469;-76
2022/06/28 01:26:35;;;;;;;9.10;4.70;;;21.40;82.60;;;;;;4988533;28;20867;-76
2022/06/28 01:29:03;;;;;;;6.13;4.37;;;21.50;82.30;;;;;;4988703;28;20840;-76
2022/06/28 01:31:41;;;;;;;4.47;3.77;;;21.60;81.90;;;;;;5003831;28;20557;-79
2022/06/28 01:34:10;;;;;;;5.50;4.10;;;21.70;81.50;;;;;;4990167;28;20563;-76
2022/06/28 01:36:39;;;;;;;6.67;4.77;;;21.80;81.30;;;;;;4999308;28;20463;-76
2022/06/28 01:39:09;;;;;;;6.83;4.60;;;21.80;81.10;;;;;;5031617;28;20465;-76
2022/06/28 01:41:38;;;;;;;5.20;4.20;;;21.90;80.90;;;;;;5009021;28;20517;-79
2022/06/28 01:44:20;;;;;;;4.67;4.10;;;21.90;80.80;;;;;;5009523;28;20463;-77
2022/06/28 01:47:00;;;;;;;5.13;4.67;;;21.80;80.90;;;;;;5001220;28;20474;-76
2022/06/28 01:49:49;;;;;;;5.27;4.77;;;21.80;81.10;;;;;;4983629;28;20958;-76
2022/06/28 01:52:19;;;;;;;4.90;4.00;;;21.80;81.20;;;;;;4991775;28;20468;-77
2022/06/28 01:54:49;;;;;;;5.10;4.10;;;21.80;81.20;;;;;;4990745;28;20479;-77
2022/06/28 01:57:17;;;;;;;5.27;4.43;;;21.80;81.30;;;;;;4981467;28;20461;-76
2022/06/28 01:59:55;;;;;;;5.47;5.00;;;21.80;81.30;;;;;;4988441;28;20500;-77
2022/06/28 02:02:41;;;;;;;8.43;5.83;;;21.80;81.30;;;;;;4987186;28;20474;-76
2022/06/28 02:05:31;;;;;;;6.37;5.77;;;21.80;81.30;;;;;;4985198;28;20501;-76
2022/06/28 02:08:03;;;;;;;9.27;6.17;;;21.80;81.20;;;;;;5021833;28;20461;-76
2022/06/28 02:10:50;;;;;;;8.53;7.40;;;21.80;81.10;;;;;;4994699;28;20487;-77
2022/06/28 02:13:19;;;;;;;7.33;6.70;;;21.90;80.90;;;;;;4992693;28;20494;-76
2022/06/28 02:15:48;;;;;;;10.80;9.47;;;21.90;81.00;;;;;;4981440;28;20557;-76
2022/06/28 02:18:16;;;;;;;10.37;9.37;;;22.00;80.70;;;;;;4992980;28;20520;-77
2022/06/28 02:20:45;;;;;;;8.80;8.10;;;22.00;80.70;;;;;;5007941;28;20568;-76
2022/06/28 02:23:14;;;;;;;9.47;7.83;;;22.00;80.50;;;;;;4994421;28;20484;-76
2022/06/28 02:25:42;;;;;;;7.00;5.90;;;22.00;80.50;;;;;;4993855;28;20514;-80
2022/06/28 02:28:11;;;;;;;8.27;5.93;;;22.00;80.40;;;;;;4995252;28;20484;-76
2022/06/28 02:30:40;;;;;;;6.47;5.77;;;22.00;80.50;;;;;;4995081;28;20488;-76
2022/06/28 02:33:08;;;;;;;8.33;5.40;;;22.00;80.50;;;;;;4994525;28;20456;-77
2022/06/28 02:41:08;;;;;;;5.47;4.97;;;22.00;80.50;;;;;;5007834;28;20457;-76
2022/06/28 02:43:38;;;;;;;7.07;6.13;;;22.00;80.50;;;;;;5006657;28;20828;-77
2022/06/28 02:46:08;;;;;;;6.60;5.97;;;22.00;80.40;;;;;;5009627;28;20527;-77
2022/06/28 02:48:36;;;;;;;9.93;5.47;;;22.00;80.50;;;;;;5007419;28;20501;-76
2022/06/28 02:51:07;;;;;;;9.37;7.50;;;22.00;80.50;;;;;;4995053;28;20469;-76
2022/06/28 02:53:39;;;;;;;6.27;5.70;;;22.00;80.40;;;;;;4983282;28;21283;-76
2022/06/28 02:56:07;;;;;;;8.20;7.40;;;22.00;80.40;;;;;;4995566;28;20476;-76
2022/06/28 02:58:37;;;;;;;7.50;5.90;;;22.00;80.60;;;;;;5026475;28;20469;-77
2022/06/28 03:01:05;;;;;;;8.67;6.00;;;22.00;80.50;;;;;;5009664;28;20471;-77
2022/06/28 03:03:34;;;;;;;8.50;6.70;;;21.90;80.70;;;;;;4992937;28;21001;-78
2022/06/28 03:06:05;;;;;;;7.93;5.77;;;21.90;80.90;;;;;;5009335;28;20938;-76
2022/06/28 03:08:33;;;;;;;6.70;6.13;;;21.80;81.00;;;;;;5031179;28;20505;-81
2022/06/28 03:11:06;;;;;;;6.30;5.40;;;21.90;81.10;;;;;;5025531;28;20552;-76
2022/06/28 03:13:34;;;;;;;8.63;6.13;;;21.90;80.90;;;;;;4990517;28;20489;-79
2022/06/28 03:16:07;;;;;;;7.37;6.40;;;22.00;80.80;;;;;;4994389;28;20583;-77
2022/06/28 03:18:35;;;;;;;7.20;6.23;;;22.00;80.90;;;;;;4994289;28;20443;-78
2022/06/28 03:21:07;;;;;;;7.40;6.70;;;22.00;80.70;;;;;;4987244;28;20871;-76
2022/06/28 03:23:35;;;;;;;7.57;6.87;;;21.70;81.20;;;;;;4993039;28;20468;-76
2022/06/28 03:26:06;;;;;;;6.93;6.23;;;21.20;82.60;;;;;;4992814;28;20552;-76
2022/06/28 03:28:34;;;;;;;8.00;7.30;;;20.90;83.80;;;;;;4992641;28;20505;-76
2022/06/28 03:31:07;;;;;;;7.30;6.10;;;20.90;84.10;;;;;;4991026;28;20559;-77
2022/06/28 03:33:35;;;;;;;7.63;6.90;;;21.00;83.80;;;;;;4989762;28;20462;-76
2022/06/28 03:36:06;;;;;;;16.27;6.20;;;21.00;83.70;;;;;;4994551;28;20474;-79
2022/06/28 03:38:38;;;;;;;7.00;6.40;;;21.10;83.70;;;;;;4994066;28;20473;-76
2022/06/28 03:41:23;;;;;;;9.70;6.40;;;21.30;83.00;;;;;;4989234;28;20477;-77
2022/06/28 03:43:58;;;;;;;8.17;7.33;;;21.40;82.80;;;;;;5017026;28;20511;-78
2022/06/28 03:46:27;;;;;;;7.90;6.90;;;21.40;82.60;;;;;;4992695;28;20473;-77
2022/06/28 03:49:19;;;;;;;7.83;6.03;;;21.50;82.30;;;;;;5007554;28;20859;-77
2022/06/28 03:51:59;;;;;;;7.63;6.93;;;21.50;82.40;;;;;;4994300;28;20428;-79
2022/06/28 03:54:29;;;;;;;8.70;7.23;;;21.50;82.30;;;;;;4991180;28;20468;-77
2022/06/28 03:57:08;;;;;;;8.67;6.90;;;21.40;82.50;;;;;;4993406;28;20475;-76
2022/06/28 03:59:37;;;;;;;10.27;7.13;;;21.40;82.70;;;;;;4991197;28;20464;-78
2022/06/28 04:02:08;;;;;;;7.57;6.77;;;21.50;82.70;;;;;;4990595;28;21158;-77
2022/06/28 04:04:36;;;;;;;10.13;6.63;;;21.50;82.80;;;;;;5024378;28;20967;-76
2022/06/28 04:07:05;;;;;;;8.13;6.83;;;21.50;82.90;;;;;;5024062;28;20980;-76
2022/06/28 04:09:34;;;;;;;7.03;6.43;;;21.50;82.60;;;;;;5024573;28;20465;-76
2022/06/28 04:12:03;;;;;;;6.30;5.63;;;21.60;82.20;;;;;;4992308;28;20457;-77
2022/06/28 04:14:31;;;;;;;7.47;5.50;;;21.70;82.10;;;;;;5027420;28;20565;-77
2022/06/28 04:17:00;;;;;;;6.80;6.10;;;21.70;81.80;;;;;;4988549;28;20476;-76
2022/06/28 04:19:45;;;;;;;5.80;5.20;;;21.70;81.50;;;;;;5020350;28;21063;-76
2022/06/28 04:22:13;;;;;;;9.17;6.53;;;21.80;81.00;;;;;;4988767;28;20476;-78
2022/06/28 04:24:42;;;;;;;9.63;5.30;;;21.90;80.70;;;;;;5003103;28;20974;-79
2022/06/28 04:27:15;;;;;;;7.17;6.30;;;22.00;80.60;;;;;;5023682;28;20463;-76
2022/06/28 04:29:43;;;;;;;6.40;5.80;;;22.00;80.30;;;;;;5023342;28;20469;-76
2022/06/28 04:32:31;;;;;;;6.83;6.13;;;22.00;80.50;;;;;;4990130;28;20480;-79
2022/06/28 04:35:01;;;;;;;6.50;5.90;;;22.10;80.40;;;;;;5004531;28;20488;-76
2022/06/28 04:37:29;;;;;;;9.23;6.27;;;22.10;80.40;;;;;;5006497;28;20519;-77
2022/06/28 04:40:06;;;;;;;7.27;6.57;;;21.90;81.00;;;;;;5001089;28;21013;-81
2022/06/28 04:42:42;;;;;;;8.73;7.53;;;21.80;81.40;;;;;;5005047;28;20488;-80
2022/06/28 04:45:12;;;;;;;9.00;7.10;;;21.80;81.80;;;;;;4987232;28;20522;-77
2022/06/28 04:47:53;;;;;;;10.90;6.40;;;21.70;81.40;;;;;;5005594;28;20495;-76
2022/06/28 04:50:23;;;;;;;7.83;7.03;;;21.70;81.40;;;;;;5000262;28;20491;-76
2022/06/28 04:52:52;;;;;;;4.33;3.93;;;21.80;81.30;;;;;;4988416;28;21440;-75
2022/06/28 04:55:21;;;;;;;7.13;2.87;;;21.90;80.60;;;;;;5012949;28;20457;-77
2022/06/28 04:57:57;;;;;;;4.23;3.60;;;22.10;80.60;;;;;;4997708;28;20488;-79
2022/06/28 05:00:27;;;;;;;6.60;5.27;;;22.40;80.20;;;;;;4979775;28;20480;-81
2022/06/28 05:03:19;;;;;;;5.93;5.43;;;22.70;78.60;;;;;;4999161;28;20573;-76
2022/06/28 05:06:06;;;;;;;6.40;5.80;;;22.80;77.50;;;;;;4988637;28;20821;-76
2022/06/28 05:08:35;;;;;;;6.43;5.30;;;22.70;77.50;;;;;;5003376;28;20470;-76
2022/06/28 05:11:08;;;;;;;6.60;5.53;;;22.70;77.00;;;;;;4989697;28;20879;-76
2022/06/28 05:13:53;;;;;;;6.37;5.53;;;22.70;77.30;;;;;;4983767;28;20943;-77
2022/06/28 05:16:23;;;;;;;8.87;4.07;;;22.70;77.90;;;;;;5004505;28;20503;-76
2022/06/28 05:18:52;;;;;;;5.30;4.80;;;22.80;78.30;;;;;;5019932;28;20475;-77
2022/06/28 05:21:32;;;;;;;4.80;3.23;;;22.90;77.60;;;;;;4983323;28;20473;-75
2022/06/28 05:24:00;;;;;;;7.67;4.20;;;23.10;77.10;;;;;;5018842;28;20473;-77
2022/06/28 05:26:37;;;;;;;6.10;4.43;;;23.20;76.60;;;;;;5017899;28;20462;-75
2022/06/28 05:29:12;;;;;;;8.20;5.60;;;23.40;75.70;;;;;;5014049;28;20618;-76
2022/06/28 05:31:40;;;;;;;5.67;5.17;;;23.40;75.10;;;;;;4985725;28;20453;-76
2022/06/28 05:34:09;;;;;;;4.80;4.40;;;23.40;75.50;;;;;;4981869;28;20972;-76
2022/06/28 05:36:39;;;;;;;3.97;2.90;;;23.40;75.60;;;;;;4989395;28;20872;-75
2022/06/28 05:39:09;;;;;;;8.53;4.90;;;23.50;75.40;;;;;;4988105;28;20879;-77
2022/06/28 05:41:38;;;;;;;5.60;5.10;;;23.50;75.30;;;;;;4991713;28;20442;-76
2022/06/28 05:44:06;;;;;;;6.80;5.50;;;23.50;75.00;;;;;;5000277;28;20487;-76
2022/06/28 05:46:34;;;;;;;3.43;2.73;;;23.50;75.20;;;;;;5004531;28;20454;-76
2022/06/28 05:49:03;;;;;;;5.47;3.63;;;23.60;75.70;;;;;;4988950;28;20530;-77
2022/06/28 05:51:31;;;;;;;4.00;3.07;;;23.80;75.80;;;;;;4988582;28;20546;-76
2022/06/28 05:54:02;;;;;;;4.53;3.20;;;24.00;75.30;;;;;;5018574;28;20465;-77
2022/06/28 05:56:32;;;;;;;7.87;3.53;;;24.20;74.60;;;;;;4984430;28;20543;-77
2022/06/28 05:59:00;;;;;;;4.53;3.30;;;24.40;74.00;;;;;;4976317;28;20481;-77
2022/06/28 06:01:28;;;;;;;6.10;4.97;;;24.60;73.50;;;;;;4987123;28;20455;-78
2022/06/28 06:03:58;;;;;;;5.00;4.60;;;24.70;71.60;;;;;;5013657;28;20486;-79
2022/06/28 06:06:26;;;;;;;4.90;4.40;;;24.70;71.40;;;;;;4993168;28;20469;-77
2022/06/28 06:08:55;;;;;;;5.23;4.73;;;24.60;71.30;;;;;;4989099;28;20943;-78
2022/06/28 06:11:25;;;;;;;4.77;4.37;;;24.40;71.90;;;;;;5004910;28;20542;-79
2022/06/28 06:13:54;;;;;;;5.27;4.70;;;24.30;72.20;;;;;;4987695;28;20477;-78
2022/06/28 06:16:22;;;;;;;7.43;5.00;;;24.20;72.50;;;;;;4989691;28;20515;-79
2022/06/28 06:18:50;;;;;;;5.37;4.97;;;24.10;72.20;;;;;;4991705;28;20463;-77
2022/06/28 06:21:19;;;;;;;5.63;5.20;;;24.00;72.40;;;;;;5004677;28;20462;-77
2022/06/28 06:23:47;;;;;;;5.20;4.70;;;24.00;72.80;;;;;;5009360;28;20587;-77
2022/06/28 06:26:18;;;;;;;5.50;4.97;;;24.00;72.60;;;;;;4978407;28;20467;-78
2022/06/28 06:28:48;;;;;;;3.80;3.50;;;24.00;72.10;;;;;;4989985;28;20467;-78
2022/06/28 06:31:16;;;;;;;4.23;3.83;;;24.00;73.20;;;;;;4989018;28;20468;-77
2022/06/28 06:33:53;;;;;;;8.30;4.43;;;24.00;73.60;;;;;;4987205;28;20552;-78
2022/06/28 06:36:30;;;;;;;4.40;4.00;;;24.20;72.50;;;;;;5019685;28;20491;-78
2022/06/28 06:39:02;;;;;;;9.63;4.50;;;24.30;71.90;;;;;;5004633;28;20526;-78
2022/06/28 06:41:31;;;;;;;5.80;4.80;;;24.40;71.70;;;;;;5004901;28;20467;-78
2022/06/28 06:44:02;;;;;;;7.17;4.60;;;24.40;71.30;;;;;;5002004;28;21024;-78
2022/06/28 06:46:33;;;;;;;5.17;4.67;;;24.30;71.90;;;;;;4989442;28;20477;-79
2022/06/28 06:49:02;;;;;;;4.30;3.90;;;24.30;71.30;;;;;;5007314;28;20496;-78
2022/06/28 06:51:31;;;;;;;5.10;4.50;;;24.10;71.50;;;;;;4992833;28;20470;-79
2022/06/28 06:54:00;;;;;;;5.60;4.60;;;24.00;71.60;;;;;;5007104;28;20480;-80
2022/06/28 06:56:30;;;;;;;5.43;4.93;;;24.00;70.80;;;;;;5026449;28;20512;-80
2022/06/28 06:58:59;;;;;;;5.00;4.50;;;24.00;70.80;;;;;;5008712;28;20900;-80
2022/06/28 07:01:32;;;;;;;3.70;3.40;;;23.90;71.30;;;;;;4988590;28;20781;-79
2022/06/28 07:04:15;;;;;;;4.60;3.97;;;23.90;72.40;;;;;;4993624;28;20483;-80
2022/06/28 07:06:44;;;;;;;3.77;3.40;;;24.00;73.10;;;;;;4993486;28;20532;-80
2022/06/28 07:09:12;;;;;;;6.93;6.33;;;24.10;72.40;;;;;;4993004;28;20457;-80
2022/06/28 07:11:40;;;;;;;4.63;4.23;;;24.10;72.20;;;;;;4994232;28;20581;-82
2022/06/28 07:14:09;;;;;;;5.90;5.30;;;24.20;71.30;;;;;;5003951;28;20602;-81
2022/06/28 07:16:39;;;;;;;5.47;4.97;;;24.10;71.80;;;;;;5025171;28;20834;-80
2022/06/28 07:19:07;;;;;;;5.27;4.77;;;24.10;71.30;;;;;;4993060;28;20485;-79
2022/06/28 07:21:35;;;;;;;5.20;4.80;;;24.00;71.90;;;;;;4991798;28;20496;-79
2022/06/28 07:24:05;;;;;;;5.13;4.63;;;23.80;72.00;;;;;;4994805;28;20474;-79
2022/06/28 07:26:35;;;;;;;5.60;5.10;;;23.80;72.10;;;;;;4994514;28;20462;-80
2022/06/28 07:29:04;;;;;;;7.30;5.40;;;23.70;72.70;;;;;;4993367;28;20462;-79
2022/06/28 07:31:40;;;;;;;5.90;5.20;;;23.70;72.80;;;;;;4990497;28;20461;-81
2022/06/28 07:34:08;;;;;;;7.20;5.10;;;23.60;73.50;;;;;;5006032;28;21024;-81
2022/06/28 07:36:37;;;;;;;6.40;5.80;;;23.50;74.70;;;;;;4995185;28;20462;-77
2022/06/28 07:39:05;;;;;;;6.23;5.63;;;23.40;76.10;;;;;;5006482;28;20620;-76
2022/06/28 07:41:53;;;;;;;4.83;4.07;;;23.30;76.50;;;;;;4993241;28;20425;-75
2022/06/28 07:44:40;;;;;;;4.10;3.60;;;23.20;77.40;;;;;;4983081;28;20544;-75
2022/06/28 07:47:09;;;;;;;4.07;2.80;;;23.40;76.20;;;;;;4992685;28;20500;-74
2022/06/28 07:52:36;;;;;;;3.73;2.67;;;24.00;74.80;;;;;;5028462;28;20480;-74
2022/06/28 07:55:11;;;;;;;2.63;2.43;;;24.30;73.90;;;;;;4990863;28;20580;-74
2022/06/28 07:58:06;;;;;;;4.77;2.43;;;24.50;73.20;;;;;;4989415;28;20477;-76
2022/06/28 08:00:34;;;;;;;3.30;2.70;;;24.80;72.60;;;;;;5007288;28;20454;-74
2022/06/28 08:03:22;;;;;;;2.50;2.30;;;25.00;72.20;;;;;;4990551;28;20643;-75
2022/06/28 08:05:50;;;;;;;4.67;2.60;;;25.10;71.80;;;;;;4989888;28;20487;-75
2022/06/28 08:08:20;;;;;;;3.47;2.90;;;25.30;71.50;;;;;;5024574;28;20531;-78
2022/06/28 08:10:48;;;;;;;4.70;3.10;;;25.40;71.20;;;;;;5024500;28;20455;-77
2022/06/28 08:13:17;;;;;;;3.43;2.47;;;25.50;70.90;;;;;;5018194;28;20481;-75
2022/06/28 08:15:46;;;;;;;4.03;2.50;;;25.50;70.80;;;;;;4981422;28;20463;-77
2022/06/28 08:18:15;;;;;;;3.27;2.90;;;25.60;70.50;;;;;;4992812;28;20457;-74
2022/06/28 08:20:46;;;;;;;2.67;2.47;;;25.70;70.20;;;;;;4984632;28;20493;-75
2022/06/28 08:23:15;;;;;;;3.40;2.73;;;25.80;70.10;;;;;;4991688;28;20467;-74
2022/06/28 08:25:43;;;;;;;2.63;2.30;;;25.90;70.10;;;;;;4987517;28;20998;-74
2022/06/28 08:28:13;;;;;;;2.50;2.30;;;25.90;69.90;;;;;;5009427;28;20464;-74
2022/06/28 08:30:42;;;;;;;2.60;2.40;;;26.00;69.70;;;;;;4992911;28;20913;-77
2022/06/28 08:33:11;;;;;;;2.93;2.60;;;26.00;69.60;;;;;;5007593;28;20817;-75
2022/06/28 08:35:40;;;;;;;2.70;2.33;;;26.10;69.50;;;;;;4991410;28;20459;-73
2022/06/28 08:38:10;;;;;;;2.83;2.07;;;26.10;69.30;;;;;;4990019;28;20962;-76
2022/06/28 08:40:38;;;;;;;3.30;2.83;;;26.20;69.20;;;;;;4984238;28;20460;-76
2022/06/28 08:43:08;;;;;;;2.23;2.03;;;26.30;69.10;;;;;;4990661;28;20939;-78
2022/06/28 08:45:37;;;;;;;2.50;2.30;;;26.30;69.00;;;;;;4991910;28;20483;-75
2022/06/28 08:48:16;;;;;;;2.27;2.07;;;26.40;68.90;;;;;;4991722;28;20506;-77
2022/06/28 08:50:51;;;;;;;5.00;2.67;;;26.40;68.80;;;;;;4991568;28;20473;-75
2022/06/28 08:53:22;;;;;;;4.60;2.60;;;26.50;68.70;;;;;;4989250;28;20464;-74
2022/06/28 08:55:52;;;;;;;2.60;2.40;;;26.50;68.60;;;;;;4992382;28;20907;-75
2022/06/28 08:58:22;;;;;;;3.40;2.33;;;26.60;68.60;;;;;;4992247;28;20471;-76
2022/06/28 09:00:51;;;;;;;2.83;2.63;;;26.60;68.50;;;;;;4992446;28;20538;-75
2022/06/28 09:03:19;;;;;;;2.23;2.03;;;26.60;68.50;;;;;;4992813;28;20786;-76
2022/06/28 09:05:48;;;;;;;2.20;2.00;;;26.70;68.40;;;;;;4992674;28;20576;-78
2022/06/28 09:08:16;;;;;;;2.10;1.90;;;26.70;68.30;;;;;;4988502;28;20461;-78
2022/06/28 09:10:45;;;;;;;2.37;2.17;;;26.80;68.20;;;;;;4991746;28;20626;-76
2022/06/28 09:13:17;;;;;;;3.13;2.40;;;26.80;68.20;;;;;;4987859;28;20506;-82
2022/06/28 09:15:49;;;;;;;3.27;2.37;;;26.80;68.20;;;;;;4990320;28;20959;-80
2022/06/28 09:18:18;;;;;;;2.70;2.50;;;26.90;68.00;;;;;;4989879;28;20465;-79
2022/06/28 09:20:46;;;;;;;2.53;1.60;;;26.90;67.90;;;;;;4991815;28;20473;-81
2022/06/28 09:23:26;;;;;;;2.30;2.10;;;27.00;67.90;;;;;;4991502;28;20485;-80
2022/06/28 09:25:57;;;;;;;2.10;1.90;;;27.00;67.80;;;;;;4990130;28;20471;-81
2022/06/28 09:28:28;;;;;;;2.20;2.00;;;27.10;67.60;;;;;;4989859;28;20544;-77
2022/06/28 09:31:19;;;;;;;2.50;2.30;;;27.10;67.70;;;;;;4990994;28;20887;-77
2022/06/28 09:34:02;;;;;;;2.73;2.50;;;27.10;67.60;;;;;;4988173;28;20460;-79
2022/06/28 09:36:32;;;;;;;3.00;2.07;;;27.10;67.60;;;;;;4991959;28;20753;-78
2022/06/28 09:39:11;;;;;;;2.13;1.93;;;27.20;67.60;;;;;;4986539;28;20465;-77
2022/06/28 09:41:44;;;;;;;2.40;2.20;;;27.20;67.50;;;;;;4990951;28;20511;-85
2022/06/28 09:44:33;;;;;;;4.50;2.40;;;27.20;67.40;;;;;;4988988;28;20456;-78
2022/06/28 09:47:01;;;;;;;2.30;2.10;;;27.30;67.40;;;;;;4989990;28;20535;-78
2022/06/28 09:49:30;;;;;;;2.30;2.10;;;27.30;67.30;;;;;;4992012;28;20581;-78
2022/06/28 09:52:00;;;;;;;2.30;2.10;;;27.30;67.20;;;;;;4985540;28;20489;-82
2022/06/28 09:54:29;;;;;;;2.10;1.83;;;27.30;67.20;;;;;;4989172;28;20534;-83
2022/06/28 09:57:01;;;;;;;2.30;2.10;;;27.30;67.20;;;;;;4989331;28;20478;-75
2022/06/28 09:59:30;;;;;;;3.73;2.30;;;27.30;67.10;;;;;;4986771;28;21433;-80
2022/06/28 10:01:58;;;;;;;2.90;2.67;;;27.30;67.10;;;;;;4987960;28;20457;-77
2022/06/28 10:04:28;;;;;;;2.27;2.07;;;27.30;67.00;;;;;;4986503;28;20475;-77
2022/06/28 10:06:56;;;;;;;2.47;2.27;;;27.30;67.10;;;;;;4989340;28;20477;-76
2022/06/28 10:09:24;;;;;;;2.10;1.90;;;27.30;67.10;;;;;;4994291;28;20460;-77
2022/06/28 10:17:39;;;;;;;2.23;2.03;;;27.30;67.30;;;;;;4998189;28;20485;-77
2022/06/28 10:20:11;;;;;;;2.60;2.40;;;27.30;67.20;;;;;;5001049;28;20560;-78
2022/06/28 10:22:39;;;;;;;2.17;1.97;;;27.30;67.20;;;;;;4992833;28;20454;-80
2022/06/28 10:25:15;;;;;;;2.33;2.13;;;27.30;67.20;;;;;;4993270;28;20458;-78
2022/06/28 10:27:48;;;;;;;2.60;2.40;;;27.30;67.10;;;;;;5001605;28;20477;-79
2022/06/28 10:30:23;;;;;;;3.13;2.00;;;27.30;67.10;;;;;;4999256;28;20468;-75
2022/06/28 10:32:55;;;;;;;2.17;1.97;;;27.30;67.10;;;;;;5005494;28;20448;-77
2022/06/28 10:35:53;;;;;;;3.10;2.63;;;27.40;67.00;;;;;;4989570;28;20456;-75
2022/06/28 10:38:21;;;;;;;2.20;2.00;;;27.40;67.10;;;;;;4988975;28;20459;-78
2022/06/28 10:40:50;;;;;;;2.50;2.30;;;27.40;67.10;;;;;;4993825;28;20460;-80
2022/06/28 10:43:44;;;;;;;2.53;2.30;;;27.40;66.90;;;;;;4990840;28;20558;-74
2022/06/28 10:46:15;;;;;;;2.57;2.37;;;27.40;66.80;;;;;;4995060;28;20665;-74
2022/06/28 10:49:07;;;;;;;2.50;2.30;;;27.50;66.90;;;;;;4980618;28;20576;-79
2022/06/28 10:51:38;;;;;;;2.70;2.50;;;27.50;66.70;;;;;;4990114;28;20447;-75
2022/06/28 10:54:08;;;;;;;2.13;2.00;;;27.50;66.60;;;;;;4996333;28;20456;-77
2022/06/28 10:56:42;;;;;;;2.53;2.33;;;27.60;66.60;;;;;;4995380;28;20956;-74
2022/06/28 10:59:12;;;;;;;2.30;2.10;;;27.60;66.40;;;;;;4993215;28;20464;-75
2022/06/28 11:01:58;;;;;;;3.03;2.07;;;27.60;66.30;;;;;;4987885;28;20917;-78
2022/06/28 11:04:30;;;;;;;2.50;2.30;;;27.70;66.20;;;;;;4992786;28;20465;-76
2022/06/28 11:07:01;;;;;;;2.60;2.20;;;27.70;66.10;;;;;;4993693;28;20555;-79
2022/06/28 11:09:39;;;;;;;2.23;2.03;;;27.70;66.10;;;;;;4989555;28;20488;-79
2022/06/28 11:12:12;;;;;;;3.73;2.30;;;27.70;65.80;;;;;;4994302;28;20504;-77
2022/06/28 11:14:49;;;;;;;3.13;2.17;;;27.70;65.70;;;;;;4990373;28;20543;-78
2022/06/28 11:17:22;;;;;;;2.60;2.40;;;27.80;65.80;;;;;;4991889;28;20500;-79
2022/06/28 11:19:53;;;;;;;2.77;2.57;;;27.80;65.60;;;;;;4992717;28;20464;-81
2022/06/28 11:22:26;;;;;;;2.57;2.27;;;27.80;65.70;;;;;;4992572;28;20500;-78
2022/06/28 11:24:56;;;;;;;2.70;2.23;;;27.80;65.50;;;;;;4988605;28;20560;-80
2022/06/28 11:27:24;;;;;;;2.60;2.37;;;27.80;65.40;;;;;;4987777;28;20482;-80
2022/06/28 11:29:55;;;;;;;2.60;2.40;;;27.80;65.40;;;;;;4990511;28;20458;-79
2022/06/28 11:32:29;;;;;;;3.97;2.70;;;27.80;65.30;;;;;;4993311;28;20813;-78
2022/06/28 11:35:03;;;;;;;2.50;2.00;;;27.90;65.30;;;;;;4984204;28;20472;-80
2022/06/28 11:37:34;;;;;;;4.00;2.57;;;27.90;65.20;;;;;;5003632;28;20519;-81
2022/06/28 11:40:04;;;;;;;4.37;3.13;;;27.90;65.10;;;;;;4988162;28;20512;-77
2022/06/28 11:42:33;;;;;;;5.27;4.03;;;27.90;65.10;;;;;;4988879;28;20523;-79
2022/06/28 11:45:01;;;;;;;5.97;5.37;;;27.90;65.10;;;;;;4988769;28;20815;-77
2022/06/28 11:47:31;;;;;;;10.57;6.77;;;28.00;65.20;;;;;;4994658;28;20949;-80
2022/06/28 11:50:13;;;;;;;13.20;9.17;;;28.00;65.30;;;;;;5006124;28;20530;-78
2022/06/28 11:52:50;;;;;;;19.33;10.67;;;28.00;65.20;;;;;;4993444;28;20494;-80
2022/06/28 11:55:19;;;;;;;17.97;12.80;;;28.00;65.20;;;;;;4991982;28;20466;-77
2022/06/28 11:58:15;;;;;;;19.80;13.07;;;28.10;65.20;;;;;;4995265;28;20475;-78
2022/06/28 12:01:04;;;;;;;19.43;16.20;;;28.10;65.10;;;;;;4992612;28;20510;-76
2022/06/28 12:03:36;;;;;;;24.97;19.40;;;28.20;65.10;;;;;;4989096;28;20464;-77
2022/06/28 12:06:08;;;;;;;27.27;20.67;;;28.20;65.10;;;;;;4992227;28;20554;-79
2022/06/28 12:08:43;;;;;;;31.90;20.60;;;28.20;65.00;;;;;;4988377;28;20481;-78
2022/06/28 12:11:33;;;;;;;24.60;21.03;;;28.30;64.90;;;;;;4989377;28;20477;-78
2022/06/28 12:14:05;;;;;;;25.50;21.30;;;28.30;64.90;;;;;;4989289;28;21033;-78
2022/06/28 12:16:35;;;;;;;25.60;19.50;;;28.30;64.80;;;;;;4986231;28;20586;-78
2022/06/28 12:19:07;;;;;;;26.27;20.17;;;28.30;64.70;;;;;;4988346;28;20463;-83
2022/06/28 12:21:39;;;;;;;23.47;18.23;;;28.30;64.80;;;;;;4986057;28;20458;-77
2022/06/28 12:24:08;;;;;;;24.23;17.10;;;28.30;64.70;;;;;;4979865;28;20518;-79
2022/06/28 12:26:45;;;;;;;20.40;16.27;;;28.30;64.60;;;;;;4977633;28;20487;-79
2022/06/28 12:29:14;;;;;;;18.50;14.83;;;28.20;64.70;;;;;;4982253;28;20470;-84
2022/06/28 12:31:44;;;;;;;16.83;12.97;;;28.20;64.80;;;;;;4987683;28;20529;-77
2022/06/28 12:34:16;;;;;;;16.83;12.13;;;28.30;64.70;;;;;;4986852;28;20528;-76
2022/06/28 12:36:44;;;;;;;24.13;13.20;;;28.30;64.70;;;;;;4984291;28;20484;-79
2022/06/28 12:39:12;;;;;;;14.80;13.23;;;28.40;64.80;;;;;;4988623;28;20509;-80
2022/06/28 12:41:41;;;;;;;15.03;11.93;;;28.30;65.10;;;;;;4985244;28;20467;-78
2022/06/28 12:44:09;;;;;;;18.60;10.30;;;28.30;65.20;;;;;;4985883;28;20464;-78
2022/06/28 12:46:38;;;;;;;17.80;11.40;;;28.30;65.30;;;;;;4985335;28;20592;-81
2022/06/28 12:49:07;;;;;;;14.63;10.90;;;28.30;65.40;;;;;;4987471;28;20582;-81
2022/06/28 12:51:38;;;;;;;14.00;11.40;;;28.30;65.60;;;;;;4981978;28;20501;-78
2022/06/28 12:54:06;;;;;;;12.33;9.50;;;28.30;65.60;;;;;;4976418;28;20939;-78
2022/06/28 12:56:35;;;;;;;14.40;10.30;;;28.30;65.60;;;;;;4980314;28;20548;-81
2022/06/28 12:59:03;;;;;;;11.37;9.37;;;28.20;65.50;;;;;;4982492;28;20479;-82
2022/06/28 13:01:32;;;;;;;11.70;9.80;;;28.20;65.60;;;;;;4983699;28;20523;-78
2022/06/28 13:04:00;;;;;;;8.27;6.23;;;28.20;65.60;;;;;;4985324;28;20824;-81
2022/06/28 13:06:29;;;;;;;5.97;4.60;;;28.20;64.90;;;;;;4990824;28;20530;-80
2022/06/28 13:08:59;;;;;;;3.43;3.13;;;28.00;63.90;;;;;;4984005;28;20479;-80
2022/06/28 13:11:27;;;;;;;4.27;3.87;;;27.80;62.40;;;;;;4991151;28;20492;-80
2022/06/28 13:13:56;;;;;;;5.77;2.73;;;27.70;63.10;;;;;;4985986;28;20511;-81
2022/06/28 13:16:26;;;;;;;2.87;2.60;;;27.60;62.60;;;;;;4990174;28;20491;-82
2022/06/28 13:18:54;;;;;;;3.33;2.80;;;27.40;62.70;;;;;;4990284;28;20457;-78
2022/06/28 13:21:22;;;;;;;3.30;3.00;;;27.30;64.20;;;;;;4995104;28;20550;-78
2022/06/28 13:23:51;;;;;;;3.67;2.93;;;27.30;64.30;;;;;;5008791;28;20477;-78
2022/06/28 13:26:20;;;;;;;3.23;3.03;;;27.30;64.20;;;;;;4991181;28;20467;-80